KSEE/SEE METAR and TAF weather

Enter ICAO airport designator
Station Type Date Time Source
KSEE METAR 2022/10/01 08:15 UTC NOAA

KSEE 010815Z AUTO 00000KT 10SM OVC014 18/15 A2986 RMK AO2


Station Type Date Time Source
KSEE Decoded METAR 2022/10/01 08:15 UTC NOAA

San Diego/El Cajon, Gillespie Field Airport, CA, United States (KSEE) 32-49-34N 116-58-20W
Oct 01, 2022 - 04:15 AM EDT / 2022.10.01 0815 UTC
Wind: Calm:0
Visibility: 10 mile(s):0
Sky conditions: overcast
Temperature: 64 F (18 C)
Dew Point: 59 F (15 C)
Relative Humidity: 82%
Pressure (altimeter): 29.86 in. Hg (1011 hPa)
ob: KSEE 010815Z AUTO 00000KT 10SM OVC014 18/15 A2986 RMK AO2
cycle: 8

Station Type Date Time Source
KSEE TAF UTC NOAA

Error!

Example: see airport list